sensor_id;sensor_type;location;lat;lon;timestamp;P1;durP1;ratioP1;P2;durP2;ratioP2
32333;SDS011;18810;53.040;8.850;2023-02-15T00:01:07;53.15;;;29.83;;
32333;SDS011;18810;53.040;8.850;2023-02-15T00:03:34;56.67;;;29.90;;
32333;SDS011;18810;53.040;8.850;2023-02-15T00:06:00;60.08;;;32.10;;
32333;SDS011;18810;53.040;8.850;2023-02-15T00:08:26;60.15;;;31.42;;
32333;SDS011;18810;53.040;8.850;2023-02-15T00:10:52;58.17;;;32.05;;
32333;SDS011;18810;53.040;8.850;2023-02-15T00:13:17;61.92;;;33.53;;
32333;SDS011;18810;53.040;8.850;2023-02-15T00:15:43;58.95;;;31.85;;
32333;SDS011;18810;53.040;8.850;2023-02-15T00:18:09;58.47;;;30.50;;
32333;SDS011;18810;53.040;8.850;2023-02-15T00:20:34;63.42;;;32.45;;
32333;SDS011;18810;53.040;8.850;2023-02-15T00:23:00;70.70;;;33.67;;
32333;SDS011;18810;53.040;8.850;2023-02-15T00:25:26;66.28;;;32.67;;
32333;SDS011;18810;53.040;8.850;2023-02-15T00:27:52;66.13;;;33.17;;
32333;SDS011;18810;53.040;8.850;2023-02-15T00:30:17;69.60;;;34.22;;
32333;SDS011;18810;53.040;8.850;2023-02-15T00:32:43;68.63;;;34.15;;
32333;SDS011;18810;53.040;8.850;2023-02-15T00:35:09;68.53;;;32.95;;
32333;SDS011;18810;53.040;8.850;2023-02-15T00:37:35;69.53;;;32.70;;
32333;SDS011;18810;53.040;8.850;2023-02-15T00:40:01;69.60;;;33.53;;
32333;SDS011;18810;53.040;8.850;2023-02-15T00:42:27;65.13;;;31.80;;
32333;SDS011;18810;53.040;8.850;2023-02-15T00:44:52;72.88;;;33.47;;
32333;SDS011;18810;53.040;8.850;2023-02-15T00:47:18;61.40;;;32.10;;
32333;SDS011;18810;53.040;8.850;2023-02-15T00:49:44;58.08;;;30.65;;
32333;SDS011;18810;53.040;8.850;2023-02-15T00:52:09;83.25;;;33.35;;
32333;SDS011;18810;53.040;8.850;2023-02-15T00:54:35;71.70;;;32.55;;
32333;SDS011;18810;53.040;8.850;2023-02-15T00:57:01;75.65;;;33.47;;
32333;SDS011;18810;53.040;8.850;2023-02-15T00:59:27;100.15;;;33.35;;
32333;SDS011;18810;53.040;8.850;2023-02-15T01:01:52;101.22;;;31.75;;
32333;SDS011;18810;53.040;8.850;2023-02-15T01:04:18;153.25;;;31.98;;
32333;SDS011;18810;53.040;8.850;2023-02-15T01:06:44;247.20;;;36.15;;
32333;SDS011;18810;53.040;8.850;2023-02-15T01:09:15;206.32;;;35.50;;
32333;SDS011;18810;53.040;8.850;2023-02-15T01:11:40;80.13;;;29.80;;
32333;SDS011;18810;53.040;8.850;2023-02-15T01:14:06;179.30;;;34.30;;
32333;SDS011;18810;53.040;8.850;2023-02-15T01:16:32;113.88;;;30.90;;
32333;SDS011;18810;53.040;8.850;2023-02-15T01:18:58;76.05;;;28.55;;
32333;SDS011;18810;53.040;8.850;2023-02-15T01:21:24;172.10;;;32.83;;
32333;SDS011;18810;53.040;8.850;2023-02-15T01:23:50;66.60;;;31.40;;
32333;SDS011;18810;53.040;8.850;2023-02-15T01:26:16;112.78;;;30.70;;
32333;SDS011;18810;53.040;8.850;2023-02-15T01:28:43;134.82;;;32.22;;
32333;SDS011;18810;53.040;8.850;2023-02-15T01:31:10;68.25;;;27.80;;
32333;SDS011;18810;53.040;8.850;2023-02-15T01:33:38;57.88;;;30.00;;
32333;SDS011;18810;53.040;8.850;2023-02-15T01:36:04;98.88;;;30.98;;
32333;SDS011;18810;53.040;8.850;2023-02-15T01:38:30;72.53;;;29.88;;
32333;SDS011;18810;53.040;8.850;2023-02-15T01:40:56;73.22;;;30.27;;
32333;SDS011;18810;53.040;8.850;2023-02-15T01:43:41;75.05;;;32.42;;
32333;SDS011;18810;53.040;8.850;2023-02-15T01:46:09;56.45;;;28.48;;
32333;SDS011;18810;53.040;8.850;2023-02-15T01:48:38;47.63;;;27.27;;
32333;SDS011;18810;53.040;8.850;2023-02-15T01:51:11;92.43;;;30.98;;
32333;SDS011;18810;53.040;8.850;2023-02-15T01:53:38;82.80;;;30.10;;
32333;SDS011;18810;53.040;8.850;2023-02-15T01:56:13;48.95;;;27.92;;
32333;SDS011;18810;53.040;8.850;2023-02-15T01:58:43;62.95;;;28.35;;
32333;SDS011;18810;53.040;8.850;2023-02-15T02:01:10;50.13;;;28.13;;
32333;SDS011;18810;53.040;8.850;2023-02-15T02:06:30;69.50;;;27.88;;
32333;SDS011;18810;53.040;8.850;2023-02-15T02:08:58;59.58;;;27.88;;
32333;SDS011;18810;53.040;8.850;2023-02-15T02:11:25;61.75;;;29.13;;
32333;SDS011;18810;53.040;8.850;2023-02-15T02:13:51;52.15;;;28.80;;
32333;SDS011;18810;53.040;8.850;2023-02-15T02:43:35;98.78;;;28.60;;
32333;SDS011;18810;53.040;8.850;2023-02-15T02:46:22;64.75;;;27.42;;
32333;SDS011;18810;53.040;8.850;2023-02-15T02:48:55;60.47;;;27.38;;
32333;SDS011;18810;53.040;8.850;2023-02-15T02:51:21;61.45;;;26.45;;
32333;SDS011;18810;53.040;8.850;2023-02-15T02:53:50;64.15;;;26.77;;
32333;SDS011;18810;53.040;8.850;2023-02-15T02:59:03;65.32;;;24.75;;
32333;SDS011;18810;53.040;8.850;2023-02-15T03:01:34;46.75;;;26.00;;
32333;SDS011;18810;53.040;8.850;2023-02-15T03:04:29;71.20;;;28.50;;
32333;SDS011;18810;53.040;8.850;2023-02-15T03:07:01;41.35;;;24.42;;
32333;SDS011;18810;53.040;8.850;2023-02-15T03:09:35;46.92;;;24.70;;
32333;SDS011;18810;53.040;8.850;2023-02-15T03:12:11;42.78;;;24.98;;
32333;SDS011;18810;53.040;8.850;2023-02-15T03:14:41;44.97;;;23.90;;
32333;SDS011;18810;53.040;8.850;2023-02-15T03:17:10;90.68;;;25.98;;
32333;SDS011;18810;53.040;8.850;2023-02-15T03:19:37;67.35;;;25.42;;
32333;SDS011;18810;53.040;8.850;2023-02-15T03:22:10;56.15;;;23.77;;
32333;SDS011;18810;53.040;8.850;2023-02-15T03:24:50;67.38;;;25.77;;
32333;SDS011;18810;53.040;8.850;2023-02-15T03:27:42;67.97;;;25.27;;
32333;SDS011;18810;53.040;8.850;2023-02-15T03:30:12;79.18;;;24.92;;
32333;SDS011;18810;53.040;8.850;2023-02-15T03:32:40;79.10;;;25.58;;
32333;SDS011;18810;53.040;8.850;2023-02-15T03:35:08;87.53;;;28.10;;
32333;SDS011;18810;53.040;8.850;2023-02-15T03:40:14;102.65;;;25.55;;
32333;SDS011;18810;53.040;8.850;2023-02-15T03:43:11;103.40;;;27.95;;
32333;SDS011;18810;53.040;8.850;2023-02-15T03:45:49;47.97;;;23.00;;
32333;SDS011;18810;53.040;8.850;2023-02-15T03:48:21;43.90;;;23.95;;
32333;SDS011;18810;53.040;8.850;2023-02-15T03:50:50;46.83;;;25.48;;
32333;SDS011;18810;53.040;8.850;2023-02-15T03:53:37;45.83;;;23.67;;
32333;SDS011;18810;53.040;8.850;2023-02-15T03:56:05;53.40;;;23.73;;
32333;SDS011;18810;53.040;8.850;2023-02-15T03:58:30;52.90;;;23.25;;
32333;SDS011;18810;53.040;8.850;2023-02-15T04:01:25;41.10;;;22.88;;
32333;SDS011;18810;53.040;8.850;2023-02-15T04:04:39;43.72;;;23.02;;
32333;SDS011;18810;53.040;8.850;2023-02-15T04:07:08;43.50;;;23.05;;
32333;SDS011;18810;53.040;8.850;2023-02-15T04:09:34;61.95;;;25.15;;
32333;SDS011;18810;53.040;8.850;2023-02-15T04:12:19;41.33;;;23.83;;
32333;SDS011;18810;53.040;8.850;2023-02-15T04:14:45;45.22;;;23.50;;
32333;SDS011;18810;53.040;8.850;2023-02-15T04:17:29;53.47;;;23.23;;
32333;SDS011;18810;53.040;8.850;2023-02-15T04:19:54;40.50;;;23.23;;
32333;SDS011;18810;53.040;8.850;2023-02-15T04:22:39;41.63;;;22.00;;
32333;SDS011;18810;53.040;8.850;2023-02-15T04:25:23;39.95;;;23.17;;
32333;SDS011;18810;53.040;8.850;2023-02-15T04:27:50;40.42;;;21.83;;
32333;SDS011;18810;53.040;8.850;2023-02-15T04:30:18;39.05;;;22.60;;
32333;SDS011;18810;53.040;8.850;2023-02-15T04:32:46;54.50;;;23.90;;
32333;SDS011;18810;53.040;8.850;2023-02-15T04:35:13;46.45;;;23.30;;
32333;SDS011;18810;53.040;8.850;2023-02-15T04:37:40;39.45;;;22.10;;
32333;SDS011;18810;53.040;8.850;2023-02-15T04:40:08;36.78;;;22.05;;
32333;SDS011;18810;53.040;8.850;2023-02-15T04:42:36;51.92;;;23.08;;
32333;SDS011;18810;53.040;8.850;2023-02-15T04:45:02;56.05;;;22.67;;
32333;SDS011;18810;53.040;8.850;2023-02-15T04:47:28;43.80;;;22.77;;
32333;SDS011;18810;53.040;8.850;2023-02-15T04:49:53;34.03;;;21.08;;
32333;SDS011;18810;53.040;8.850;2023-02-15T04:52:19;37.30;;;21.77;;
32333;SDS011;18810;53.040;8.850;2023-02-15T04:54:47;34.42;;;21.02;;
32333;SDS011;18810;53.040;8.850;2023-02-15T04:57:13;47.58;;;24.08;;
32333;SDS011;18810;53.040;8.850;2023-02-15T04:59:39;39.13;;;23.30;;
32333;SDS011;18810;53.040;8.850;2023-02-15T05:02:05;48.42;;;22.25;;
32333;SDS011;18810;53.040;8.850;2023-02-15T05:04:31;59.95;;;23.40;;
32333;SDS011;18810;53.040;8.850;2023-02-15T05:06:57;37.45;;;23.27;;
32333;SDS011;18810;53.040;8.850;2023-02-15T05:09:22;36.97;;;21.73;;
32333;SDS011;18810;53.040;8.850;2023-02-15T05:11:48;40.78;;;22.30;;
32333;SDS011;18810;53.040;8.850;2023-02-15T05:14:14;92.28;;;27.30;;
32333;SDS011;18810;53.040;8.850;2023-02-15T05:16:40;43.13;;;22.70;;
32333;SDS011;18810;53.040;8.850;2023-02-15T05:19:05;36.33;;;22.23;;
32333;SDS011;18810;53.040;8.850;2023-02-15T05:24:02;36.65;;;21.02;;
32333;SDS011;18810;53.040;8.850;2023-02-15T05:26:48;42.50;;;20.58;;
32333;SDS011;18810;53.040;8.850;2023-02-15T05:29:32;44.63;;;22.45;;
32333;SDS011;18810;53.040;8.850;2023-02-15T05:32:01;38.58;;;20.75;;
32333;SDS011;18810;53.040;8.850;2023-02-15T05:34:27;35.45;;;21.55;;
32333;SDS011;18810;53.040;8.850;2023-02-15T05:36:53;50.05;;;23.35;;
32333;SDS011;18810;53.040;8.850;2023-02-15T05:39:18;60.83;;;21.80;;
32333;SDS011;18810;53.040;8.850;2023-02-15T05:41:44;53.83;;;21.33;;
32333;SDS011;18810;53.040;8.850;2023-02-15T05:44:10;43.05;;;21.58;;
32333;SDS011;18810;53.040;8.850;2023-02-15T05:46:35;48.97;;;22.05;;
32333;SDS011;18810;53.040;8.850;2023-02-15T05:49:01;35.47;;;21.45;;
32333;SDS011;18810;53.040;8.850;2023-02-15T05:51:27;38.22;;;21.05;;
32333;SDS011;18810;53.040;8.850;2023-02-15T05:53:52;36.10;;;20.50;;
32333;SDS011;18810;53.040;8.850;2023-02-15T05:56:18;45.75;;;21.50;;
32333;SDS011;18810;53.040;8.850;2023-02-15T05:58:44;63.63;;;21.67;;
32333;SDS011;18810;53.040;8.850;2023-02-15T06:01:10;44.28;;;22.30;;
32333;SDS011;18810;53.040;8.850;2023-02-15T06:03:37;37.47;;;20.98;;
32333;SDS011;18810;53.040;8.850;2023-02-15T06:06:03;34.50;;;20.45;;
32333;SDS011;18810;53.040;8.850;2023-02-15T06:08:33;37.40;;;20.63;;
32333;SDS011;18810;53.040;8.850;2023-02-15T06:10:59;41.42;;;21.25;;
32333;SDS011;18810;53.040;8.850;2023-02-15T06:13:26;31.77;;;19.25;;
32333;SDS011;18810;53.040;8.850;2023-02-15T06:15:52;64.30;;;21.27;;
32333;SDS011;18810;53.040;8.850;2023-02-15T06:18:18;41.08;;;19.73;;
32333;SDS011;18810;53.040;8.850;2023-02-15T06:20:47;53.13;;;20.63;;
32333;SDS011;18810;53.040;8.850;2023-02-15T06:23:13;58.42;;;21.77;;
32333;SDS011;18810;53.040;8.850;2023-02-15T06:25:39;34.15;;;20.10;;
32333;SDS011;18810;53.040;8.850;2023-02-15T06:28:04;33.65;;;19.63;;
32333;SDS011;18810;53.040;8.850;2023-02-15T06:30:30;33.22;;;20.15;;
32333;SDS011;18810;53.040;8.850;2023-02-15T06:32:57;51.28;;;21.00;;
32333;SDS011;18810;53.040;8.850;2023-02-15T06:35:22;38.60;;;21.30;;
32333;SDS011;18810;53.040;8.850;2023-02-15T06:37:48;37.55;;;20.70;;
32333;SDS011;18810;53.040;8.850;2023-02-15T06:40:14;39.25;;;20.08;;
32333;SDS011;18810;53.040;8.850;2023-02-15T06:42:43;39.58;;;20.45;;
32333;SDS011;18810;53.040;8.850;2023-02-15T06:45:09;38.97;;;20.42;;
32333;SDS011;18810;53.040;8.850;2023-02-15T06:47:35;33.22;;;20.15;;
32333;SDS011;18810;53.040;8.850;2023-02-15T06:50:02;34.63;;;20.75;;
32333;SDS011;18810;53.040;8.850;2023-02-15T06:52:28;33.40;;;20.33;;
32333;SDS011;18810;53.040;8.850;2023-02-15T06:54:54;33.40;;;19.88;;
32333;SDS011;18810;53.040;8.850;2023-02-15T06:57:20;34.47;;;20.83;;
32333;SDS011;18810;53.040;8.850;2023-02-15T06:59:46;33.17;;;20.02;;
32333;SDS011;18810;53.040;8.850;2023-02-15T07:02:11;34.05;;;20.35;;
32333;SDS011;18810;53.040;8.850;2023-02-15T07:04:37;37.95;;;20.42;;
32333;SDS011;18810;53.040;8.850;2023-02-15T07:07:03;35.97;;;21.25;;
32333;SDS011;18810;53.040;8.850;2023-02-15T07:09:32;35.75;;;19.40;;
32333;SDS011;18810;53.040;8.850;2023-02-15T07:11:58;34.83;;;21.05;;
32333;SDS011;18810;53.040;8.850;2023-02-15T07:14:42;33.78;;;19.98;;
32333;SDS011;18810;53.040;8.850;2023-02-15T07:17:07;53.85;;;22.52;;
32333;SDS011;18810;53.040;8.850;2023-02-15T07:19:33;40.10;;;21.88;;
32333;SDS011;18810;53.040;8.850;2023-02-15T07:21:59;42.63;;;21.02;;
32333;SDS011;18810;53.040;8.850;2023-02-15T07:24:25;41.70;;;21.08;;
32333;SDS011;18810;53.040;8.850;2023-02-15T07:26:51;35.90;;;21.42;;
32333;SDS011;18810;53.040;8.850;2023-02-15T07:29:18;35.70;;;21.15;;
32333;SDS011;18810;53.040;8.850;2023-02-15T07:31:44;35.95;;;21.30;;
32333;SDS011;18810;53.040;8.850;2023-02-15T07:34:10;35.53;;;20.58;;
32333;SDS011;18810;53.040;8.850;2023-02-15T07:36:36;33.50;;;20.25;;
32333;SDS011;18810;53.040;8.850;2023-02-15T07:39:02;37.85;;;21.63;;
32333;SDS011;18810;53.040;8.850;2023-02-15T07:41:28;40.72;;;23.60;;
32333;SDS011;18810;53.040;8.850;2023-02-15T07:43:53;35.40;;;22.75;;
32333;SDS011;18810;53.040;8.850;2023-02-15T07:46:19;37.60;;;22.92;;
32333;SDS011;18810;53.040;8.850;2023-02-15T07:48:45;42.38;;;22.60;;
32333;SDS011;18810;53.040;8.850;2023-02-15T07:51:11;38.72;;;21.88;;
32333;SDS011;18810;53.040;8.850;2023-02-15T07:53:39;36.03;;;20.77;;
32333;SDS011;18810;53.040;8.850;2023-02-15T07:56:15;33.13;;;20.20;;
32333;SDS011;18810;53.040;8.850;2023-02-15T07:58:40;39.90;;;22.25;;
32333;SDS011;18810;53.040;8.850;2023-02-15T08:01:30;33.67;;;21.02;;
32333;SDS011;18810;53.040;8.850;2023-02-15T08:03:57;35.17;;;20.52;;
32333;SDS011;18810;53.040;8.850;2023-02-15T08:06:24;36.15;;;20.92;;
32333;SDS011;18810;53.040;8.850;2023-02-15T08:08:51;34.15;;;20.15;;
32333;SDS011;18810;53.040;8.850;2023-02-15T08:11:51;34.90;;;21.67;;
32333;SDS011;18810;53.040;8.850;2023-02-15T08:14:12;36.22;;;22.25;;
32333;SDS011;18810;53.040;8.850;2023-02-15T08:16:46;37.42;;;21.42;;
32333;SDS011;18810;53.040;8.850;2023-02-15T08:19:16;35.80;;;21.80;;
32333;SDS011;18810;53.040;8.850;2023-02-15T08:21:48;34.70;;;21.10;;
32333;SDS011;18810;53.040;8.850;2023-02-15T08:24:33;35.53;;;20.67;;
32333;SDS011;18810;53.040;8.850;2023-02-15T08:27:02;35.13;;;21.73;;
32333;SDS011;18810;53.040;8.850;2023-02-15T08:29:29;32.70;;;20.48;;
32333;SDS011;18810;53.040;8.850;2023-02-15T08:31:56;29.55;;;18.92;;
32333;SDS011;18810;53.040;8.850;2023-02-15T08:34:27;33.17;;;20.92;;
32333;SDS011;18810;53.040;8.850;2023-02-15T08:36:55;30.15;;;19.20;;
32333;SDS011;18810;53.040;8.850;2023-02-15T08:39:21;28.02;;;17.85;;
32333;SDS011;18810;53.040;8.850;2023-02-15T08:41:47;28.80;;;19.40;;
32333;SDS011;18810;53.040;8.850;2023-02-15T08:44:14;28.27;;;18.45;;
32333;SDS011;18810;53.040;8.850;2023-02-15T08:46:44;29.30;;;18.45;;
32333;SDS011;18810;53.040;8.850;2023-02-15T08:49:20;29.80;;;18.85;;
32333;SDS011;18810;53.040;8.850;2023-02-15T08:51:52;28.17;;;18.17;;
32333;SDS011;18810;53.040;8.850;2023-02-15T08:54:19;26.15;;;18.15;;
32333;SDS011;18810;53.040;8.850;2023-02-15T08:56:46;30.30;;;18.77;;
32333;SDS011;18810;53.040;8.850;2023-02-15T08:59:16;26.80;;;17.48;;
32333;SDS011;18810;53.040;8.850;2023-02-15T09:01:47;27.38;;;17.67;;
32333;SDS011;18810;53.040;8.850;2023-02-15T09:04:35;28.02;;;17.98;;
32333;SDS011;18810;53.040;8.850;2023-02-15T09:07:01;25.50;;;17.40;;
32333;SDS011;18810;53.040;8.850;2023-02-15T09:09:29;24.92;;;17.52;;
32333;SDS011;18810;53.040;8.850;2023-02-15T09:11:56;27.13;;;18.73;;
32333;SDS011;18810;53.040;8.850;2023-02-15T09:14:21;25.50;;;17.58;;
32333;SDS011;18810;53.040;8.850;2023-02-15T09:16:49;29.63;;;19.13;;
32333;SDS011;18810;53.040;8.850;2023-02-15T09:19:17;26.52;;;18.70;;
32333;SDS011;18810;53.040;8.850;2023-02-15T09:21:45;25.60;;;18.92;;
32333;SDS011;18810;53.040;8.850;2023-02-15T09:24:11;26.88;;;19.48;;
32333;SDS011;18810;53.040;8.850;2023-02-15T09:26:40;24.00;;;17.52;;
32333;SDS011;18810;53.040;8.850;2023-02-15T09:29:07;26.60;;;19.15;;
32333;SDS011;18810;53.040;8.850;2023-02-15T09:31:36;24.20;;;17.65;;
32333;SDS011;18810;53.040;8.850;2023-02-15T09:34:06;25.98;;;18.42;;
32333;SDS011;18810;53.040;8.850;2023-02-15T09:36:33;25.45;;;17.13;;
32333;SDS011;18810;53.040;8.850;2023-02-15T09:39:03;23.70;;;16.40;;
32333;SDS011;18810;53.040;8.850;2023-02-15T09:49:50;26.67;;;17.65;;
32333;SDS011;18810;53.040;8.850;2023-02-15T09:52:45;24.90;;;18.20;;
32333;SDS011;18810;53.040;8.850;2023-02-15T09:55:29;28.45;;;19.73;;
32333;SDS011;18810;53.040;8.850;2023-02-15T10:06:09;26.38;;;18.63;;
32333;SDS011;18810;53.040;8.850;2023-02-15T10:22:42;24.40;;;17.75;;
32333;SDS011;18810;53.040;8.850;2023-02-15T10:25:31;24.08;;;18.48;;
32333;SDS011;18810;53.040;8.850;2023-02-15T10:28:10;24.15;;;18.33;;
32333;SDS011;18810;53.040;8.850;2023-02-15T10:30:46;26.77;;;19.48;;
32333;SDS011;18810;53.040;8.850;2023-02-15T10:47:01;29.23;;;21.63;;
32333;SDS011;18810;53.040;8.850;2023-02-15T10:58:14;27.77;;;21.02;;
32333;SDS011;18810;53.040;8.850;2023-02-15T11:06:41;31.23;;;22.40;;
32333;SDS011;18810;53.040;8.850;2023-02-15T11:09:13;32.92;;;23.65;;
32333;SDS011;18810;53.040;8.850;2023-02-15T11:11:43;35.58;;;24.42;;
32333;SDS011;18810;53.040;8.850;2023-02-15T11:16:54;32.80;;;21.58;;
32333;SDS011;18810;53.040;8.850;2023-02-15T11:19:31;31.70;;;21.90;;
32333;SDS011;18810;53.040;8.850;2023-02-15T11:24:39;30.35;;;22.88;;
32333;SDS011;18810;53.040;8.850;2023-02-15T11:27:28;26.17;;;21.02;;
32333;SDS011;18810;53.040;8.850;2023-02-15T11:37:54;28.85;;;21.48;;
32333;SDS011;18810;53.040;8.850;2023-02-15T11:40:43;29.25;;;21.27;;
32333;SDS011;18810;53.040;8.850;2023-02-15T11:46:01;27.92;;;21.75;;
32333;SDS011;18810;53.040;8.850;2023-02-15T11:48:27;31.45;;;23.40;;
32333;SDS011;18810;53.040;8.850;2023-02-15T11:50:56;28.60;;;22.10;;
32333;SDS011;18810;53.040;8.850;2023-02-15T11:53:22;28.80;;;22.63;;
32333;SDS011;18810;53.040;8.850;2023-02-15T11:55:53;32.13;;;22.58;;
32333;SDS011;18810;53.040;8.850;2023-02-15T12:01:20;31.63;;;23.83;;
32333;SDS011;18810;53.040;8.850;2023-02-15T12:03:54;29.27;;;23.15;;
32333;SDS011;18810;53.040;8.850;2023-02-15T12:06:27;33.92;;;25.25;;
32333;SDS011;18810;53.040;8.850;2023-02-15T12:14:53;33.72;;;25.20;;
32333;SDS011;18810;53.040;8.850;2023-02-15T12:17:20;31.58;;;24.42;;
32333;SDS011;18810;53.040;8.850;2023-02-15T12:19:52;33.70;;;25.50;;
32333;SDS011;18810;53.040;8.850;2023-02-15T12:24:55;36.63;;;26.75;;
32333;SDS011;18810;53.040;8.850;2023-02-15T12:29:58;39.40;;;26.75;;
32333;SDS011;18810;53.040;8.850;2023-02-15T12:32:31;38.97;;;27.10;;
32333;SDS011;18810;53.040;8.850;2023-02-15T12:38:00;38.38;;;29.10;;
32333;SDS011;18810;53.040;8.850;2023-02-15T12:40:35;45.22;;;31.45;;
32333;SDS011;18810;53.040;8.850;2023-02-15T12:43:02;42.65;;;30.67;;
32333;SDS011;18810;53.040;8.850;2023-02-15T12:45:34;44.33;;;31.08;;
32333;SDS011;18810;53.040;8.850;2023-02-15T12:48:09;41.85;;;29.65;;
32333;SDS011;18810;53.040;8.850;2023-02-15T12:50:48;36.63;;;28.60;;
32333;SDS011;18810;53.040;8.850;2023-02-15T12:53:17;38.33;;;29.15;;
32333;SDS011;18810;53.040;8.850;2023-02-15T12:55:58;41.42;;;30.48;;
32333;SDS011;18810;53.040;8.850;2023-02-15T12:58:29;41.25;;;31.10;;
32333;SDS011;18810;53.040;8.850;2023-02-15T13:01:04;44.15;;;30.95;;
32333;SDS011;18810;53.040;8.850;2023-02-15T13:03:56;42.13;;;30.70;;
32333;SDS011;18810;53.040;8.850;2023-02-15T13:06:29;51.28;;;33.50;;
32333;SDS011;18810;53.040;8.850;2023-02-15T13:09:05;50.08;;;33.72;;
32333;SDS011;18810;53.040;8.850;2023-02-15T13:11:43;53.22;;;34.00;;
32333;SDS011;18810;53.040;8.850;2023-02-15T13:16:41;48.42;;;34.45;;
32333;SDS011;18810;53.040;8.850;2023-02-15T13:19:11;49.70;;;33.85;;
32333;SDS011;18810;53.040;8.850;2023-02-15T13:21:47;46.40;;;33.05;;
32333;SDS011;18810;53.040;8.850;2023-02-15T13:24:17;49.85;;;33.25;;
32333;SDS011;18810;53.040;8.850;2023-02-15T13:26:49;51.20;;;32.30;;
32333;SDS011;18810;53.040;8.850;2023-02-15T13:29:23;50.63;;;32.72;;
32333;SDS011;18810;53.040;8.850;2023-02-15T13:31:51;52.67;;;33.08;;
32333;SDS011;18810;53.040;8.850;2023-02-15T13:34:24;54.60;;;33.90;;
32333;SDS011;18810;53.040;8.850;2023-02-15T13:39:51;52.38;;;32.13;;
32333;SDS011;18810;53.040;8.850;2023-02-15T13:42:36;53.97;;;33.53;;
32333;SDS011;18810;53.040;8.850;2023-02-15T13:45:09;56.45;;;34.13;;
32333;SDS011;18810;53.040;8.850;2023-02-15T13:53:06;50.15;;;31.52;;
32333;SDS011;18810;53.040;8.850;2023-02-15T13:55:44;54.78;;;31.80;;
32333;SDS011;18810;53.040;8.850;2023-02-15T14:01:26;51.78;;;30.80;;
32333;SDS011;18810;53.040;8.850;2023-02-15T14:04:07;48.17;;;30.02;;
32333;SDS011;18810;53.040;8.850;2023-02-15T14:07:05;50.85;;;30.88;;
32333;SDS011;18810;53.040;8.850;2023-02-15T14:09:50;47.47;;;28.83;;
32333;SDS011;18810;53.040;8.850;2023-02-15T14:20:47;46.95;;;28.80;;
32333;SDS011;18810;53.040;8.850;2023-02-15T14:23:02;47.47;;;28.40;;
32333;SDS011;18810;53.040;8.850;2023-02-15T14:25:48;48.60;;;29.27;;
32333;SDS011;18810;53.040;8.850;2023-02-15T14:31:18;48.20;;;28.08;;
32333;SDS011;18810;53.040;8.850;2023-02-15T14:33:54;46.22;;;29.20;;
32333;SDS011;18810;53.040;8.850;2023-02-15T14:36:21;47.28;;;28.20;;
32333;SDS011;18810;53.040;8.850;2023-02-15T14:41:24;44.72;;;28.80;;
32333;SDS011;18810;53.040;8.850;2023-02-15T14:44:15;48.88;;;28.23;;
32333;SDS011;18810;53.040;8.850;2023-02-15T14:46:50;47.13;;;28.17;;
32333;SDS011;18810;53.040;8.850;2023-02-15T14:49:27;44.65;;;28.23;;
32333;SDS011;18810;53.040;8.850;2023-02-15T14:52:02;48.50;;;28.77;;
32333;SDS011;18810;53.040;8.850;2023-02-15T15:02:30;46.10;;;27.40;;
32333;SDS011;18810;53.040;8.850;2023-02-15T15:07:57;43.40;;;27.90;;
32333;SDS011;18810;53.040;8.850;2023-02-15T15:13:00;46.20;;;27.88;;
32333;SDS011;18810;53.040;8.850;2023-02-15T15:15:55;41.58;;;26.95;;
32333;SDS011;18810;53.040;8.850;2023-02-15T15:33:29;42.35;;;25.73;;
32333;SDS011;18810;53.040;8.850;2023-02-15T15:35:36;43.88;;;25.60;;
32333;SDS011;18810;53.040;8.850;2023-02-15T15:41:18;40.90;;;27.35;;
32333;SDS011;18810;53.040;8.850;2023-02-15T15:49:15;43.65;;;26.58;;
32333;SDS011;18810;53.040;8.850;2023-02-15T15:51:44;51.03;;;28.63;;
32333;SDS011;18810;53.040;8.850;2023-02-15T15:54:15;48.80;;;28.73;;
32333;SDS011;18810;53.040;8.850;2023-02-15T15:56:44;42.80;;;27.02;;
32333;SDS011;18810;53.040;8.850;2023-02-15T15:59:16;43.28;;;27.83;;
32333;SDS011;18810;53.040;8.850;2023-02-15T16:01:52;42.30;;;28.02;;
32333;SDS011;18810;53.040;8.850;2023-02-15T16:04:25;48.38;;;28.10;;
32333;SDS011;18810;53.040;8.850;2023-02-15T16:06:57;45.33;;;25.92;;
32333;SDS011;18810;53.040;8.850;2023-02-15T16:09:38;45.50;;;25.88;;
32333;SDS011;18810;53.040;8.850;2023-02-15T16:12:04;41.85;;;27.05;;
32333;SDS011;18810;53.040;8.850;2023-02-15T16:14:39;43.03;;;26.45;;
32333;SDS011;18810;53.040;8.850;2023-02-15T16:17:07;48.55;;;27.60;;
32333;SDS011;18810;53.040;8.850;2023-02-15T16:19:44;45.97;;;27.33;;
32333;SDS011;18810;53.040;8.850;2023-02-15T16:22:15;52.28;;;30.00;;
32333;SDS011;18810;53.040;8.850;2023-02-15T16:30:20;46.90;;;27.30;;
32333;SDS011;18810;53.040;8.850;2023-02-15T16:32:46;45.03;;;27.40;;
32333;SDS011;18810;53.040;8.850;2023-02-15T16:35:16;47.60;;;28.20;;
32333;SDS011;18810;53.040;8.850;2023-02-15T16:37:43;45.33;;;27.30;;
32333;SDS011;18810;53.040;8.850;2023-02-15T16:42:54;49.72;;;28.95;;
32333;SDS011;18810;53.040;8.850;2023-02-15T16:45:26;44.53;;;28.23;;
32333;SDS011;18810;53.040;8.850;2023-02-15T16:47:55;49.10;;;28.65;;
32333;SDS011;18810;53.040;8.850;2023-02-15T16:50:24;40.55;;;27.05;;
32333;SDS011;18810;53.040;8.850;2023-02-15T16:52:55;48.38;;;28.67;;
32333;SDS011;18810;53.040;8.850;2023-02-15T16:55:26;48.58;;;29.10;;
32333;SDS011;18810;53.040;8.850;2023-02-15T16:57:57;44.83;;;27.77;;
32333;SDS011;18810;53.040;8.850;2023-02-15T17:00:30;47.67;;;28.40;;
32333;SDS011;18810;53.040;8.850;2023-02-15T17:05:30;45.33;;;28.10;;
32333;SDS011;18810;53.040;8.850;2023-02-15T17:13:24;44.05;;;28.33;;
32333;SDS011;18810;53.040;8.850;2023-02-15T17:18:26;49.13;;;29.08;;
32333;SDS011;18810;53.040;8.850;2023-02-15T17:21:10;43.30;;;27.80;;
32333;SDS011;18810;53.040;8.850;2023-02-15T17:23:41;46.75;;;28.75;;
32333;SDS011;18810;53.040;8.850;2023-02-15T17:26:42;50.13;;;27.80;;
32333;SDS011;18810;53.040;8.850;2023-02-15T17:32:03;53.67;;;28.02;;
32333;SDS011;18810;53.040;8.850;2023-02-15T17:34:41;47.35;;;29.15;;
32333;SDS011;18810;53.040;8.850;2023-02-15T17:37:27;44.30;;;27.17;;
32333;SDS011;18810;53.040;8.850;2023-02-15T17:39:53;50.47;;;28.63;;
32333;SDS011;18810;53.040;8.850;2023-02-15T17:42:19;45.90;;;29.10;;
32333;SDS011;18810;53.040;8.850;2023-02-15T17:44:45;48.00;;;28.90;;
32333;SDS011;18810;53.040;8.850;2023-02-15T17:47:18;54.60;;;29.38;;
32333;SDS011;18810;53.040;8.850;2023-02-15T17:49:46;49.45;;;28.73;;
32333;SDS011;18810;53.040;8.850;2023-02-15T17:52:14;49.03;;;28.38;;
32333;SDS011;18810;53.040;8.850;2023-02-15T17:54:41;45.53;;;28.65;;
32333;SDS011;18810;53.040;8.850;2023-02-15T17:57:25;49.40;;;29.38;;
32333;SDS011;18810;53.040;8.850;2023-02-15T17:59:52;48.38;;;29.58;;
32333;SDS011;18810;53.040;8.850;2023-02-15T18:02:37;48.92;;;29.50;;
32333;SDS011;18810;53.040;8.850;2023-02-15T18:05:21;49.00;;;28.70;;
32333;SDS011;18810;53.040;8.850;2023-02-15T18:08:13;48.45;;;29.83;;
32333;SDS011;18810;53.040;8.850;2023-02-15T18:10:59;49.03;;;28.75;;
32333;SDS011;18810;53.040;8.850;2023-02-15T18:13:44;47.78;;;29.92;;
32333;SDS011;18810;53.040;8.850;2023-02-15T18:16:11;47.80;;;27.90;;
32333;SDS011;18810;53.040;8.850;2023-02-15T18:18:43;48.63;;;28.52;;